Star, Texas
Current Conditions -  °F | °C
As of 3:15 PM on Sunday 23 Nov 2014 (Local Time) from KMNZ Reporting Station
Clear Clear  
Wind Chill: 75°   Ceiling: Unl
Heat Index: 75°   Visibility: 10mi
Dew Point: 37°   Wind: 22mph
Humidity: 25%   Direction: 270°W
Pressure: 29.51"   Gusts: 36mph
Location:  31.47°N, 98.32°W
Report Text: KMNZ 232115Z AUTO 27019G31KT 10SM CLR 24/03 A2951 RMK AO2 T02400027
Loading
Personal Weather Stations






























Interactive Weather Map New forecast layout! Learn more

10-Day Weather Forecast

Advertisements
Track Severe Weather on mobile